sensor_id;sensor_type;location;lat;lon;timestamp;P1;durP1;ratioP1;P2;durP2;ratioP2
24337;SDS011;12457;50.832;4.346;2023-07-22T00:00:11;13.93;;;9.20;;
24337;SDS011;12457;50.832;4.346;2023-07-22T00:02:40;18.60;;;9.43;;
24337;SDS011;12457;50.832;4.346;2023-07-22T00:05:10;13.32;;;9.35;;
24337;SDS011;12457;50.832;4.346;2023-07-22T00:07:36;15.85;;;10.23;;
24337;SDS011;12457;50.832;4.346;2023-07-22T00:10:01;15.00;;;9.10;;
24337;SDS011;12457;50.832;4.346;2023-07-22T00:12:27;11.63;;;8.63;;
24337;SDS011;12457;50.832;4.346;2023-07-22T00:14:53;16.88;;;9.05;;
24337;SDS011;12457;50.832;4.346;2023-07-22T00:17:19;14.15;;;9.15;;
24337;SDS011;12457;50.832;4.346;2023-07-22T00:19:46;17.58;;;8.60;;
24337;SDS011;12457;50.832;4.346;2023-07-22T00:22:13;14.15;;;9.45;;
24337;SDS011;12457;50.832;4.346;2023-07-22T00:24:40;15.55;;;9.15;;
24337;SDS011;12457;50.832;4.346;2023-07-22T00:27:06;14.90;;;8.80;;
24337;SDS011;12457;50.832;4.346;2023-07-22T00:29:33;12.30;;;8.07;;
24337;SDS011;12457;50.832;4.346;2023-07-22T00:31:59;19.38;;;9.75;;
24337;SDS011;12457;50.832;4.346;2023-07-22T00:34:25;13.90;;;8.35;;
24337;SDS011;12457;50.832;4.346;2023-07-22T00:36:51;18.65;;;9.00;;
24337;SDS011;12457;50.832;4.346;2023-07-22T00:39:17;18.55;;;9.55;;
24337;SDS011;12457;50.832;4.346;2023-07-22T00:41:43;22.00;;;9.40;;
24337;SDS011;12457;50.832;4.346;2023-07-22T00:44:10;16.08;;;9.20;;
24337;SDS011;12457;50.832;4.346;2023-07-22T00:46:37;14.75;;;9.35;;
24337;SDS011;12457;50.832;4.346;2023-07-22T00:49:05;13.05;;;8.75;;
24337;SDS011;12457;50.832;4.346;2023-07-22T00:51:32;17.65;;;8.93;;
24337;SDS011;12457;50.832;4.346;2023-07-22T00:53:58;13.93;;;9.50;;
24337;SDS011;12457;50.832;4.346;2023-07-22T00:56:24;17.63;;;9.55;;
24337;SDS011;12457;50.832;4.346;2023-07-22T00:58:50;19.00;;;10.27;;
24337;SDS011;12457;50.832;4.346;2023-07-22T01:01:16;14.50;;;9.35;;
24337;SDS011;12457;50.832;4.346;2023-07-22T01:03:42;15.90;;;9.40;;
24337;SDS011;12457;50.832;4.346;2023-07-22T01:06:09;16.63;;;8.85;;
24337;SDS011;12457;50.832;4.346;2023-07-22T01:08:35;14.98;;;9.80;;
24337;SDS011;12457;50.832;4.346;2023-07-22T01:11:01;18.05;;;9.50;;
24337;SDS011;12457;50.832;4.346;2023-07-22T01:13:28;14.00;;;9.95;;
24337;SDS011;12457;50.832;4.346;2023-07-22T01:15:54;19.25;;;9.90;;
24337;SDS011;12457;50.832;4.346;2023-07-22T01:18:20;21.40;;;10.40;;
24337;SDS011;12457;50.832;4.346;2023-07-22T01:20:46;17.48;;;9.20;;
24337;SDS011;12457;50.832;4.346;2023-07-22T01:23:12;18.80;;;9.98;;
24337;SDS011;12457;50.832;4.346;2023-07-22T01:25:38;15.38;;;9.95;;
24337;SDS011;12457;50.832;4.346;2023-07-22T01:28:08;18.23;;;10.05;;
24337;SDS011;12457;50.832;4.346;2023-07-22T01:30:35;16.77;;;9.55;;
24337;SDS011;12457;50.832;4.346;2023-07-22T01:33:01;17.17;;;10.77;;
24337;SDS011;12457;50.832;4.346;2023-07-22T01:35:27;15.43;;;9.82;;
24337;SDS011;12457;50.832;4.346;2023-07-22T01:37:53;16.58;;;9.48;;
24337;SDS011;12457;50.832;4.346;2023-07-22T01:40:19;17.10;;;10.43;;
24337;SDS011;12457;50.832;4.346;2023-07-22T01:42:45;19.55;;;9.90;;
24337;SDS011;12457;50.832;4.346;2023-07-22T01:45:11;16.70;;;9.77;;
24337;SDS011;12457;50.832;4.346;2023-07-22T01:47:37;15.68;;;9.38;;
24337;SDS011;12457;50.832;4.346;2023-07-22T01:50:04;14.65;;;8.95;;
24337;SDS011;12457;50.832;4.346;2023-07-22T01:52:34;15.50;;;8.93;;
24337;SDS011;12457;50.832;4.346;2023-07-22T01:55:00;20.35;;;10.77;;
24337;SDS011;12457;50.832;4.346;2023-07-22T01:57:26;20.80;;;10.68;;
24337;SDS011;12457;50.832;4.346;2023-07-22T01:59:51;17.20;;;9.88;;
24337;SDS011;12457;50.832;4.346;2023-07-22T02:02:18;17.38;;;9.65;;
24337;SDS011;12457;50.832;4.346;2023-07-22T02:04:45;21.30;;;10.13;;
24337;SDS011;12457;50.832;4.346;2023-07-22T02:07:10;22.35;;;10.90;;
24337;SDS011;12457;50.832;4.346;2023-07-22T02:09:36;19.15;;;10.27;;
24337;SDS011;12457;50.832;4.346;2023-07-22T02:12:02;17.45;;;10.75;;
24337;SDS011;12457;50.832;4.346;2023-07-22T02:14:28;15.98;;;10.70;;
24337;SDS011;12457;50.832;4.346;2023-07-22T02:16:53;16.02;;;9.65;;
24337;SDS011;12457;50.832;4.346;2023-07-22T02:19:19;23.77;;;10.45;;
24337;SDS011;12457;50.832;4.346;2023-07-22T02:21:45;20.10;;;11.40;;
24337;SDS011;12457;50.832;4.346;2023-07-22T02:24:12;20.50;;;11.65;;
24337;SDS011;12457;50.832;4.346;2023-07-22T02:26:39;16.13;;;10.43;;
24337;SDS011;12457;50.832;4.346;2023-07-22T02:29:05;21.40;;;10.63;;
24337;SDS011;12457;50.832;4.346;2023-07-22T02:31:31;25.10;;;11.07;;
24337;SDS011;12457;50.832;4.346;2023-07-22T02:33:56;18.58;;;10.80;;
24337;SDS011;12457;50.832;4.346;2023-07-22T02:36:23;18.73;;;10.85;;
24337;SDS011;12457;50.832;4.346;2023-07-22T02:38:49;23.40;;;12.15;;
24337;SDS011;12457;50.832;4.346;2023-07-22T02:41:16;31.10;;;19.85;;
24337;SDS011;12457;50.832;4.346;2023-07-22T02:43:42;25.60;;;13.30;;
24337;SDS011;12457;50.832;4.346;2023-07-22T02:46:08;24.75;;;12.18;;
24337;SDS011;12457;50.832;4.346;2023-07-22T02:48:34;21.15;;;12.07;;
24337;SDS011;12457;50.832;4.346;2023-07-22T02:51:07;23.75;;;11.55;;
24337;SDS011;12457;50.832;4.346;2023-07-22T02:53:34;24.17;;;12.98;;
24337;SDS011;12457;50.832;4.346;2023-07-22T02:56:06;19.67;;;11.85;;
24337;SDS011;12457;50.832;4.346;2023-07-22T02:58:32;20.58;;;12.02;;
24337;SDS011;12457;50.832;4.346;2023-07-22T03:00:58;22.92;;;12.00;;
24337;SDS011;12457;50.832;4.346;2023-07-22T03:03:24;27.02;;;13.32;;
24337;SDS011;12457;50.832;4.346;2023-07-22T03:05:50;22.65;;;13.15;;
24337;SDS011;12457;50.832;4.346;2023-07-22T03:08:17;27.45;;;13.98;;
24337;SDS011;12457;50.832;4.346;2023-07-22T03:10:43;37.95;;;14.13;;
24337;SDS011;12457;50.832;4.346;2023-07-22T03:13:14;23.08;;;12.52;;
24337;SDS011;12457;50.832;4.346;2023-07-22T03:15:40;28.63;;;12.35;;
24337;SDS011;12457;50.832;4.346;2023-07-22T03:18:05;25.27;;;13.32;;
24337;SDS011;12457;50.832;4.346;2023-07-22T03:20:31;25.45;;;14.10;;
24337;SDS011;12457;50.832;4.346;2023-07-22T03:22:57;22.35;;;12.68;;
24337;SDS011;12457;50.832;4.346;2023-07-22T03:25:23;26.05;;;13.82;;
24337;SDS011;12457;50.832;4.346;2023-07-22T03:27:48;27.33;;;12.93;;
24337;SDS011;12457;50.832;4.346;2023-07-22T03:30:15;26.60;;;13.52;;
24337;SDS011;12457;50.832;4.346;2023-07-22T03:32:42;33.22;;;13.10;;
24337;SDS011;12457;50.832;4.346;2023-07-22T03:35:09;24.77;;;13.55;;
24337;SDS011;12457;50.832;4.346;2023-07-22T03:37:41;22.30;;;12.35;;
24337;SDS011;12457;50.832;4.346;2023-07-22T03:40:06;27.13;;;13.02;;
24337;SDS011;12457;50.832;4.346;2023-07-22T03:42:54;24.75;;;13.07;;
24337;SDS011;12457;50.832;4.346;2023-07-22T03:45:20;24.13;;;12.25;;
24337;SDS011;12457;50.832;4.346;2023-07-22T03:47:47;29.00;;;12.75;;
24337;SDS011;12457;50.832;4.346;2023-07-22T03:50:15;24.02;;;12.38;;
24337;SDS011;12457;50.832;4.346;2023-07-22T03:52:41;35.72;;;13.32;;
24337;SDS011;12457;50.832;4.346;2023-07-22T03:55:07;20.80;;;12.30;;
24337;SDS011;12457;50.832;4.346;2023-07-22T03:57:33;25.77;;;13.15;;
24337;SDS011;12457;50.832;4.346;2023-07-22T03:59:59;24.90;;;11.90;;
24337;SDS011;12457;50.832;4.346;2023-07-22T04:02:25;27.58;;;11.93;;
24337;SDS011;12457;50.832;4.346;2023-07-22T04:04:52;22.13;;;12.55;;
24337;SDS011;12457;50.832;4.346;2023-07-22T04:07:19;24.80;;;12.23;;
24337;SDS011;12457;50.832;4.346;2023-07-22T04:09:45;28.55;;;12.30;;
24337;SDS011;12457;50.832;4.346;2023-07-22T04:12:12;25.17;;;12.20;;
24337;SDS011;12457;50.832;4.346;2023-07-22T04:14:38;26.17;;;11.35;;
24337;SDS011;12457;50.832;4.346;2023-07-22T04:17:04;21.55;;;13.50;;
24337;SDS011;12457;50.832;4.346;2023-07-22T04:19:30;23.08;;;12.13;;
24337;SDS011;12457;50.832;4.346;2023-07-22T04:21:56;28.10;;;11.35;;
24337;SDS011;12457;50.832;4.346;2023-07-22T04:24:22;20.08;;;11.45;;
24337;SDS011;12457;50.832;4.346;2023-07-22T04:26:48;22.70;;;12.35;;
24337;SDS011;12457;50.832;4.346;2023-07-22T04:29:13;19.65;;;11.25;;
24337;SDS011;12457;50.832;4.346;2023-07-22T04:31:39;25.73;;;12.10;;
24337;SDS011;12457;50.832;4.346;2023-07-22T04:34:05;21.42;;;11.77;;
24337;SDS011;12457;50.832;4.346;2023-07-22T04:36:31;23.27;;;11.45;;
24337;SDS011;12457;50.832;4.346;2023-07-22T04:38:57;40.97;;;14.35;;
24337;SDS011;12457;50.832;4.346;2023-07-22T04:41:23;21.80;;;12.50;;
24337;SDS011;12457;50.832;4.346;2023-07-22T04:43:50;20.15;;;10.63;;
24337;SDS011;12457;50.832;4.346;2023-07-22T04:46:16;22.08;;;11.05;;
24337;SDS011;12457;50.832;4.346;2023-07-22T04:48:42;20.73;;;11.25;;
24337;SDS011;12457;50.832;4.346;2023-07-22T04:51:08;21.60;;;10.55;;
24337;SDS011;12457;50.832;4.346;2023-07-22T04:53:34;25.35;;;11.43;;
24337;SDS011;12457;50.832;4.346;2023-07-22T04:55:59;22.17;;;10.93;;
24337;SDS011;12457;50.832;4.346;2023-07-22T04:58:25;25.98;;;11.50;;
24337;SDS011;12457;50.832;4.346;2023-07-22T05:00:51;25.38;;;11.07;;
24337;SDS011;12457;50.832;4.346;2023-07-22T05:03:17;26.38;;;11.77;;
24337;SDS011;12457;50.832;4.346;2023-07-22T05:05:43;28.70;;;11.50;;
24337;SDS011;12457;50.832;4.346;2023-07-22T05:08:09;26.70;;;10.68;;
24337;SDS011;12457;50.832;4.346;2023-07-22T05:10:39;21.88;;;10.27;;
24337;SDS011;12457;50.832;4.346;2023-07-22T05:13:04;19.52;;;10.38;;
24337;SDS011;12457;50.832;4.346;2023-07-22T05:15:30;23.15;;;11.40;;
24337;SDS011;12457;50.832;4.346;2023-07-22T05:17:56;26.02;;;11.40;;
24337;SDS011;12457;50.832;4.346;2023-07-22T05:20:21;19.15;;;10.10;;
24337;SDS011;12457;50.832;4.346;2023-07-22T05:22:47;21.77;;;9.98;;
24337;SDS011;12457;50.832;4.346;2023-07-22T05:25:13;20.25;;;9.57;;
24337;SDS011;12457;50.832;4.346;2023-07-22T05:27:40;21.55;;;11.07;;
24337;SDS011;12457;50.832;4.346;2023-07-22T05:30:06;19.38;;;9.23;;
24337;SDS011;12457;50.832;4.346;2023-07-22T05:32:32;18.77;;;9.57;;
24337;SDS011;12457;50.832;4.346;2023-07-22T05:34:58;17.42;;;9.25;;
24337;SDS011;12457;50.832;4.346;2023-07-22T05:37:24;18.15;;;9.95;;
24337;SDS011;12457;50.832;4.346;2023-07-22T05:39:50;20.58;;;8.80;;
24337;SDS011;12457;50.832;4.346;2023-07-22T05:42:16;22.17;;;8.50;;
24337;SDS011;12457;50.832;4.346;2023-07-22T05:44:42;15.93;;;7.43;;
24337;SDS011;12457;50.832;4.346;2023-07-22T05:47:08;15.45;;;7.40;;
24337;SDS011;12457;50.832;4.346;2023-07-22T05:49:34;16.30;;;8.23;;
24337;SDS011;12457;50.832;4.346;2023-07-22T05:51:59;13.32;;;7.05;;
24337;SDS011;12457;50.832;4.346;2023-07-22T05:54:25;13.13;;;7.88;;
24337;SDS011;12457;50.832;4.346;2023-07-22T05:56:51;15.35;;;7.55;;
24337;SDS011;12457;50.832;4.346;2023-07-22T05:59:17;18.50;;;8.60;;
24337;SDS011;12457;50.832;4.346;2023-07-22T06:01:42;17.40;;;6.65;;
24337;SDS011;12457;50.832;4.346;2023-07-22T06:04:08;15.48;;;7.22;;
24337;SDS011;12457;50.832;4.346;2023-07-22T06:06:34;15.05;;;7.38;;
24337;SDS011;12457;50.832;4.346;2023-07-22T06:09:00;20.13;;;8.25;;
24337;SDS011;12457;50.832;4.346;2023-07-22T06:11:26;18.08;;;6.88;;
24337;SDS011;12457;50.832;4.346;2023-07-22T06:13:53;20.20;;;7.38;;
24337;SDS011;12457;50.832;4.346;2023-07-22T06:16:19;16.02;;;7.25;;
24337;SDS011;12457;50.832;4.346;2023-07-22T06:18:45;16.20;;;7.38;;
24337;SDS011;12457;50.832;4.346;2023-07-22T06:21:12;15.85;;;7.10;;
24337;SDS011;12457;50.832;4.346;2023-07-22T06:23:39;19.65;;;8.35;;
24337;SDS011;12457;50.832;4.346;2023-07-22T06:26:06;17.52;;;7.35;;
24337;SDS011;12457;50.832;4.346;2023-07-22T06:28:31;12.90;;;6.38;;
24337;SDS011;12457;50.832;4.346;2023-07-22T06:30:57;22.30;;;8.13;;
24337;SDS011;12457;50.832;4.346;2023-07-22T06:33:23;12.15;;;6.35;;
24337;SDS011;12457;50.832;4.346;2023-07-22T06:35:48;17.95;;;7.47;;
24337;SDS011;12457;50.832;4.346;2023-07-22T06:38:14;12.93;;;6.57;;
24337;SDS011;12457;50.832;4.346;2023-07-22T06:40:40;17.13;;;7.32;;
24337;SDS011;12457;50.832;4.346;2023-07-22T06:43:05;17.98;;;7.35;;
24337;SDS011;12457;50.832;4.346;2023-07-22T06:45:31;13.80;;;6.82;;
24337;SDS011;12457;50.832;4.346;2023-07-22T06:47:58;13.38;;;6.35;;
24337;SDS011;12457;50.832;4.346;2023-07-22T06:50:23;17.30;;;6.63;;
24337;SDS011;12457;50.832;4.346;2023-07-22T06:52:49;12.10;;;6.40;;
24337;SDS011;12457;50.832;4.346;2023-07-22T06:55:15;14.82;;;6.30;;
24337;SDS011;12457;50.832;4.346;2023-07-22T06:57:41;18.23;;;8.07;;
24337;SDS011;12457;50.832;4.346;2023-07-22T07:00:07;16.77;;;7.72;;
24337;SDS011;12457;50.832;4.346;2023-07-22T07:02:34;11.45;;;6.72;;
24337;SDS011;12457;50.832;4.346;2023-07-22T07:05:01;20.35;;;6.88;;
24337;SDS011;12457;50.832;4.346;2023-07-22T07:07:26;14.38;;;6.50;;
24337;SDS011;12457;50.832;4.346;2023-07-22T07:09:52;17.23;;;6.63;;
24337;SDS011;12457;50.832;4.346;2023-07-22T07:12:18;16.30;;;6.35;;
24337;SDS011;12457;50.832;4.346;2023-07-22T07:14:43;18.50;;;6.90;;
24337;SDS011;12457;50.832;4.346;2023-07-22T07:17:09;16.77;;;6.50;;
24337;SDS011;12457;50.832;4.346;2023-07-22T07:19:35;15.45;;;6.47;;
24337;SDS011;12457;50.832;4.346;2023-07-22T07:22:00;15.30;;;5.97;;
24337;SDS011;12457;50.832;4.346;2023-07-22T07:24:35;11.65;;;5.75;;
24337;SDS011;12457;50.832;4.346;2023-07-22T07:27:01;15.05;;;5.43;;
24337;SDS011;12457;50.832;4.346;2023-07-22T07:29:27;9.60;;;4.82;;
24337;SDS011;12457;50.832;4.346;2023-07-22T07:31:53;13.93;;;5.65;;
24337;SDS011;12457;50.832;4.346;2023-07-22T07:34:18;12.50;;;5.63;;
24337;SDS011;12457;50.832;4.346;2023-07-22T07:36:44;13.00;;;6.03;;
24337;SDS011;12457;50.832;4.346;2023-07-22T07:39:10;15.07;;;6.38;;
24337;SDS011;12457;50.832;4.346;2023-07-22T07:41:35;16.63;;;5.53;;
24337;SDS011;12457;50.832;4.346;2023-07-22T07:44:02;11.20;;;5.90;;
24337;SDS011;12457;50.832;4.346;2023-07-22T07:46:28;17.48;;;7.32;;
24337;SDS011;12457;50.832;4.346;2023-07-22T07:49:01;11.95;;;5.78;;
24337;SDS011;12457;50.832;4.346;2023-07-22T07:51:27;16.30;;;6.20;;
24337;SDS011;12457;50.832;4.346;2023-07-22T07:53:55;16.55;;;5.95;;
24337;SDS011;12457;50.832;4.346;2023-07-22T07:56:22;13.57;;;5.97;;
24337;SDS011;12457;50.832;4.346;2023-07-22T07:58:48;10.63;;;5.30;;
24337;SDS011;12457;50.832;4.346;2023-07-22T08:01:15;18.63;;;6.20;;
24337;SDS011;12457;50.832;4.346;2023-07-22T08:03:41;14.05;;;5.50;;
24337;SDS011;12457;50.832;4.346;2023-07-22T08:06:08;13.80;;;7.05;;
24337;SDS011;12457;50.832;4.346;2023-07-22T08:08:35;16.65;;;5.35;;
24337;SDS011;12457;50.832;4.346;2023-07-22T08:11:06;12.50;;;5.97;;
24337;SDS011;12457;50.832;4.346;2023-07-22T08:13:36;13.55;;;5.82;;
24337;SDS011;12457;50.832;4.346;2023-07-22T08:16:02;13.63;;;5.88;;
24337;SDS011;12457;50.832;4.346;2023-07-22T08:18:30;11.32;;;4.35;;
24337;SDS011;12457;50.832;4.346;2023-07-22T08:20:56;13.00;;;5.43;;
24337;SDS011;12457;50.832;4.346;2023-07-22T08:23:22;16.20;;;6.47;;
24337;SDS011;12457;50.832;4.346;2023-07-22T08:25:48;15.20;;;8.35;;
24337;SDS011;12457;50.832;4.346;2023-07-22T08:28:14;16.00;;;6.55;;
24337;SDS011;12457;50.832;4.346;2023-07-22T08:30:40;16.20;;;6.35;;
24337;SDS011;12457;50.832;4.346;2023-07-22T08:33:07;12.70;;;5.13;;
24337;SDS011;12457;50.832;4.346;2023-07-22T08:35:34;12.43;;;4.25;;
24337;SDS011;12457;50.832;4.346;2023-07-22T08:38:01;17.17;;;6.53;;
24337;SDS011;12457;50.832;4.346;2023-07-22T08:40:27;12.30;;;4.43;;
24337;SDS011;12457;50.832;4.346;2023-07-22T08:43:02;14.60;;;6.53;;
24337;SDS011;12457;50.832;4.346;2023-07-22T08:45:30;11.73;;;5.53;;
24337;SDS011;12457;50.832;4.346;2023-07-22T08:48:11;11.63;;;5.53;;
24337;SDS011;12457;50.832;4.346;2023-07-22T08:50:52;11.00;;;4.70;;
24337;SDS011;12457;50.832;4.346;2023-07-22T08:53:20;11.35;;;4.93;;
24337;SDS011;12457;50.832;4.346;2023-07-22T08:55:46;15.23;;;6.47;;
24337;SDS011;12457;50.832;4.346;2023-07-22T08:58:13;18.27;;;6.82;;
24337;SDS011;12457;50.832;4.346;2023-07-22T09:00:39;25.48;;;14.15;;
24337;SDS011;12457;50.832;4.346;2023-07-22T09:03:05;8.35;;;4.40;;
24337;SDS011;12457;50.832;4.346;2023-07-22T09:05:32;15.15;;;8.35;;
24337;SDS011;12457;50.832;4.346;2023-07-22T09:07:59;16.15;;;8.15;;
24337;SDS011;12457;50.832;4.346;2023-07-22T09:10:27;9.40;;;4.35;;
24337;SDS011;12457;50.832;4.346;2023-07-22T09:12:53;13.73;;;6.03;;
24337;SDS011;12457;50.832;4.346;2023-07-22T09:15:19;4.88;;;2.92;;
24337;SDS011;12457;50.832;4.346;2023-07-22T09:17:46;11.60;;;5.00;;
24337;SDS011;12457;50.832;4.346;2023-07-22T09:20:12;7.88;;;3.05;;
24337;SDS011;12457;50.832;4.346;2023-07-22T09:22:42;16.20;;;7.70;;
24337;SDS011;12457;50.832;4.346;2023-07-22T09:25:19;17.23;;;10.43;;
24337;SDS011;12457;50.832;4.346;2023-07-22T09:27:49;21.17;;;9.18;;
24337;SDS011;12457;50.832;4.346;2023-07-22T09:30:21;13.48;;;8.57;;
24337;SDS011;12457;50.832;4.346;2023-07-22T09:32:52;11.20;;;5.68;;
24337;SDS011;12457;50.832;4.346;2023-07-22T09:35:27;12.88;;;6.68;;
24337;SDS011;12457;50.832;4.346;2023-07-22T09:37:58;16.57;;;5.53;;
24337;SDS011;12457;50.832;4.346;2023-07-22T09:40:25;10.50;;;6.78;;
24337;SDS011;12457;50.832;4.346;2023-07-22T09:42:52;13.82;;;7.57;;
24337;SDS011;12457;50.832;4.346;2023-07-22T09:45:25;14.33;;;6.67;;
24337;SDS011;12457;50.832;4.346;2023-07-22T09:47:53;16.55;;;9.52;;
24337;SDS011;12457;50.832;4.346;2023-07-22T09:50:20;9.35;;;4.63;;
24337;SDS011;12457;50.832;4.346;2023-07-22T09:52:52;15.13;;;10.23;;
24337;SDS011;12457;50.832;4.346;2023-07-22T09:55:22;11.10;;;7.03;;
24337;SDS011;12457;50.832;4.346;2023-07-22T09:57:59;11.23;;;6.57;;
24337;SDS011;12457;50.832;4.346;2023-07-22T10:00:33;16.23;;;7.15;;
24337;SDS011;12457;50.832;4.346;2023-07-22T10:03:00;14.45;;;7.60;;
24337;SDS011;12457;50.832;4.346;2023-07-22T10:05:29;7.45;;;4.65;;
24337;SDS011;12457;50.832;4.346;2023-07-22T10:08:00;7.75;;;5.68;;
24337;SDS011;12457;50.832;4.346;2023-07-22T10:10:31;10.02;;;4.32;;
24337;SDS011;12457;50.832;4.346;2023-07-22T10:12:58;12.25;;;7.28;;
24337;SDS011;12457;50.832;4.346;2023-07-22T10:15:25;33.70;;;21.55;;
24337;SDS011;12457;50.832;4.346;2023-07-22T10:17:53;10.85;;;6.22;;
24337;SDS011;12457;50.832;4.346;2023-07-22T10:20:20;4.75;;;2.83;;
24337;SDS011;12457;50.832;4.346;2023-07-22T10:22:48;43.05;;;27.30;;
24337;SDS011;12457;50.832;4.346;2023-07-22T10:25:18;4.40;;;2.80;;
24337;SDS011;12457;50.832;4.346;2023-07-22T10:27:45;3.53;;;2.08;;
24337;SDS011;12457;50.832;4.346;2023-07-22T10:30:13;7.43;;;2.28;;
24337;SDS011;12457;50.832;4.346;2023-07-22T10:32:41;4.55;;;2.13;;
24337;SDS011;12457;50.832;4.346;2023-07-22T10:35:08;4.30;;;2.13;;
24337;SDS011;12457;50.832;4.346;2023-07-22T10:37:35;5.75;;;2.00;;
24337;SDS011;12457;50.832;4.346;2023-07-22T10:42:57;4.10;;;2.88;;
24337;SDS011;12457;50.832;4.346;2023-07-22T10:45:31;6.22;;;2.53;;
24337;SDS011;12457;50.832;4.346;2023-07-22T10:48:11;3.22;;;2.58;;
24337;SDS011;12457;50.832;4.346;2023-07-22T10:50:47;8.43;;;2.05;;
24337;SDS011;12457;50.832;4.346;2023-07-22T10:56:10;5.95;;;2.20;;
24337;SDS011;12457;50.832;4.346;2023-07-22T11:04:11;9.65;;;6.53;;
24337;SDS011;12457;50.832;4.346;2023-07-22T11:14:26;4.22;;;2.65;;
24337;SDS011;12457;50.832;4.346;2023-07-22T11:16:51;17.45;;;12.57;;
24337;SDS011;12457;50.832;4.346;2023-07-22T11:19:21;11.90;;;6.13;;
24337;SDS011;12457;50.832;4.346;2023-07-22T11:21:48;12.43;;;9.30;;
24337;SDS011;12457;50.832;4.346;2023-07-22T11:24:15;10.82;;;7.32;;
24337;SDS011;12457;50.832;4.346;2023-07-22T11:26:42;9.32;;;3.80;;
24337;SDS011;12457;50.832;4.346;2023-07-22T11:29:09;6.43;;;2.60;;
24337;SDS011;12457;50.832;4.346;2023-07-22T11:31:37;7.40;;;2.88;;
24337;SDS011;12457;50.832;4.346;2023-07-22T11:34:11;5.80;;;2.50;;
24337;SDS011;12457;50.832;4.346;2023-07-22T11:36:37;2.25;;;2.05;;
24337;SDS011;12457;50.832;4.346;2023-07-22T11:41:32;9.05;;;5.75;;
24337;SDS011;12457;50.832;4.346;2023-07-22T11:43:59;5.55;;;2.55;;
24337;SDS011;12457;50.832;4.346;2023-07-22T11:46:26;5.40;;;3.20;;
24337;SDS011;12457;50.832;4.346;2023-07-22T11:48:53;9.70;;;2.60;;
24337;SDS011;12457;50.832;4.346;2023-07-22T11:51:21;3.83;;;2.15;;
24337;SDS011;12457;50.832;4.346;2023-07-22T11:53:50;3.33;;;2.15;;
24337;SDS011;12457;50.832;4.346;2023-07-22T11:56:20;8.75;;;2.40;;
24337;SDS011;12457;50.832;4.346;2023-07-22T11:58:54;7.05;;;2.40;;
24337;SDS011;12457;50.832;4.346;2023-07-22T12:01:21;3.83;;;2.03;;
24337;SDS011;12457;50.832;4.346;2023-07-22T12:03:48;5.88;;;2.50;;
24337;SDS011;12457;50.832;4.346;2023-07-22T12:06:15;4.28;;;3.00;;
24337;SDS011;12457;50.832;4.346;2023-07-22T12:08:45;5.47;;;2.38;;
24337;SDS011;12457;50.832;4.346;2023-07-22T12:11:22;4.60;;;2.20;;
24337;SDS011;12457;50.832;4.346;2023-07-22T12:14:11;7.18;;;5.03;;
24337;SDS011;12457;50.832;4.346;2023-07-22T12:16:38;11.82;;;6.28;;
24337;SDS011;12457;50.832;4.346;2023-07-22T12:19:05;8.90;;;4.70;;
24337;SDS011;12457;50.832;4.346;2023-07-22T12:21:32;15.93;;;11.43;;
24337;SDS011;12457;50.832;4.346;2023-07-22T12:23:58;12.98;;;7.75;;
24337;SDS011;12457;50.832;4.346;2023-07-22T12:26:24;13.48;;;8.65;;
24337;SDS011;12457;50.832;4.346;2023-07-22T12:28:50;7.00;;;2.85;;
24337;SDS011;12457;50.832;4.346;2023-07-22T12:31:16;5.95;;;3.22;;
24337;SDS011;12457;50.832;4.346;2023-07-22T12:33:42;5.85;;;1.90;;
24337;SDS011;12457;50.832;4.346;2023-07-22T12:36:07;6.38;;;2.95;;
24337;SDS011;12457;50.832;4.346;2023-07-22T12:38:33;6.40;;;4.78;;
24337;SDS011;12457;50.832;4.346;2023-07-22T12:41:00;12.85;;;9.23;;
24337;SDS011;12457;50.832;4.346;2023-07-22T12:43:26;10.98;;;7.88;;
24337;SDS011;12457;50.832;4.346;2023-07-22T12:45:51;15.93;;;6.97;;
24337;SDS011;12457;50.832;4.346;2023-07-22T12:48:17;4.55;;;2.10;;
24337;SDS011;12457;50.832;4.346;2023-07-22T12:50:43;7.57;;;2.58;;
24337;SDS011;12457;50.832;4.346;2023-07-22T12:53:09;9.50;;;4.53;;
24337;SDS011;12457;50.832;4.346;2023-07-22T12:55:40;6.43;;;2.40;;
24337;SDS011;12457;50.832;4.346;2023-07-22T12:58:06;6.35;;;2.45;;
24337;SDS011;12457;50.832;4.346;2023-07-22T13:00:31;7.03;;;2.05;;
24337;SDS011;12457;50.832;4.346;2023-07-22T13:02:57;3.53;;;1.70;;
24337;SDS011;12457;50.832;4.346;2023-07-22T13:05:23;3.88;;;1.75;;
24337;SDS011;12457;50.832;4.346;2023-07-22T13:07:50;6.55;;;3.08;;
24337;SDS011;12457;50.832;4.346;2023-07-22T13:10:15;8.38;;;1.90;;
24337;SDS011;12457;50.832;4.346;2023-07-22T13:12:43;6.47;;;1.80;;
24337;SDS011;12457;50.832;4.346;2023-07-22T13:15:09;4.00;;;2.05;;
24337;SDS011;12457;50.832;4.346;2023-07-22T13:17:35;14.55;;;7.13;;
24337;SDS011;12457;50.832;4.346;2023-07-22T13:20:01;7.95;;;3.00;;
24337;SDS011;12457;50.832;4.346;2023-07-22T13:22:33;7.18;;;3.33;;
24337;SDS011;12457;50.832;4.346;2023-07-22T13:25:05;5.95;;;2.78;;
24337;SDS011;12457;50.832;4.346;2023-07-22T13:27:31;4.82;;;2.22;;
24337;SDS011;12457;50.832;4.346;2023-07-22T13:29:57;3.17;;;2.03;;
24337;SDS011;12457;50.832;4.346;2023-07-22T13:32:23;8.98;;;3.90;;
24337;SDS011;12457;50.832;4.346;2023-07-22T13:34:49;7.05;;;2.80;;
24337;SDS011;12457;50.832;4.346;2023-07-22T13:37:14;6.93;;;2.67;;
24337;SDS011;12457;50.832;4.346;2023-07-22T13:39:41;6.40;;;3.38;;
24337;SDS011;12457;50.832;4.346;2023-07-22T13:42:06;6.97;;;3.08;;
24337;SDS011;12457;50.832;4.346;2023-07-22T13:44:32;10.80;;;3.60;;
24337;SDS011;12457;50.832;4.346;2023-07-22T13:46:58;3.97;;;1.92;;
24337;SDS011;12457;50.832;4.346;2023-07-22T13:49:24;35.53;;;25.60;;
24337;SDS011;12457;50.832;4.346;2023-07-22T13:51:50;8.45;;;4.60;;
24337;SDS011;12457;50.832;4.346;2023-07-22T13:54:15;5.60;;;3.22;;
24337;SDS011;12457;50.832;4.346;2023-07-22T13:56:41;9.35;;;5.78;;
24337;SDS011;12457;50.832;4.346;2023-07-22T13:59:08;5.25;;;2.25;;
24337;SDS011;12457;50.832;4.346;2023-07-22T14:01:34;8.32;;;2.10;;
24337;SDS011;12457;50.832;4.346;2023-07-22T14:04:00;7.63;;;5.30;;
24337;SDS011;12457;50.832;4.346;2023-07-22T14:06:26;9.40;;;4.78;;
24337;SDS011;12457;50.832;4.346;2023-07-22T14:08:53;36.20;;;19.77;;
24337;SDS011;12457;50.832;4.346;2023-07-22T14:11:21;12.27;;;6.80;;
24337;SDS011;12457;50.832;4.346;2023-07-22T14:13:47;13.18;;;2.47;;
24337;SDS011;12457;50.832;4.346;2023-07-22T14:16:13;7.90;;;3.10;;
24337;SDS011;12457;50.832;4.346;2023-07-22T14:18:38;7.72;;;2.42;;
24337;SDS011;12457;50.832;4.346;2023-07-22T14:21:04;6.35;;;3.17;;
24337;SDS011;12457;50.832;4.346;2023-07-22T14:23:30;13.40;;;2.47;;
24337;SDS011;12457;50.832;4.346;2023-07-22T14:25:55;6.55;;;3.13;;
24337;SDS011;12457;50.832;4.346;2023-07-22T14:28:21;8.10;;;2.30;;
24337;SDS011;12457;50.832;4.346;2023-07-22T14:30:47;4.30;;;2.20;;
24337;SDS011;12457;50.832;4.346;2023-07-22T14:33:12;11.05;;;2.22;;
24337;SDS011;12457;50.832;4.346;2023-07-22T14:35:38;4.40;;;2.17;;
24337;SDS011;12457;50.832;4.346;2023-07-22T14:38:04;5.25;;;2.03;;
24337;SDS011;12457;50.832;4.346;2023-07-22T14:40:29;5.50;;;2.10;;
24337;SDS011;12457;50.832;4.346;2023-07-22T14:42:55;9.00;;;3.10;;
24337;SDS011;12457;50.832;4.346;2023-07-22T14:45:21;8.27;;;3.10;;
24337;SDS011;12457;50.832;4.346;2023-07-22T14:47:46;3.30;;;1.75;;
24337;SDS011;12457;50.832;4.346;2023-07-22T14:50:13;7.45;;;2.28;;
24337;SDS011;12457;50.832;4.346;2023-07-22T14:52:39;7.28;;;1.98;;